Time;durP1;ratioP1;P1;durP2;ratioP2;P2;SDS_P1;SDS_P2;PMS_P1;PMS_P2;Temp;Humidity;BMP_temperature;BMP_pressure;BME280_temperature;BME280_humidity;BME280_pressure;Samples;Min_cycle;Max_cycle;Signal;HPM_P1;HPM_P2
2024/01/12 00:00:32;;;;;;;92.25;36.15;;;;;;;;;;5042696;28;20041;-79
2024/01/12 00:02:58;;;;;;;98.90;36.90;;;;;;;;;;5034545;28;20053;-79
2024/01/12 00:05:24;;;;;;;90.90;37.13;;;;;;;;;;5034153;28;20380;-79
2024/01/12 00:07:50;;;;;;;95.00;37.17;;;;;;;;;;5034145;28;20045;-78
2024/01/12 00:10:16;;;;;;;97.47;36.40;;;;;;;;;;5038564;28;20091;-79
2024/01/12 00:12:42;;;;;;;95.28;38.30;;;;;;;;;;5020020;28;20049;-79
2024/01/12 00:15:09;;;;;;;84.78;37.00;;;;;;;;;;5032971;28;20049;-79
2024/01/12 00:17:35;;;;;;;86.75;35.28;;;;;;;;;;5038402;28;20045;-79
2024/01/12 00:20:04;;;;;;;91.28;37.15;;;;;;;;;;5032058;28;20053;-78
2024/01/12 00:22:30;;;;;;;87.45;35.38;;;;;;;;;;5016476;28;20041;-78
2024/01/12 00:24:56;;;;;;;93.22;36.53;;;;;;;;;;5044849;28;20048;-78
2024/01/12 00:27:22;;;;;;;87.07;34.65;;;;;;;;;;5030237;28;20162;-79
2024/01/12 00:29:49;;;;;;;79.55;35.35;;;;;;;;;;5040374;28;20491;-79
2024/01/12 00:32:15;;;;;;;79.32;35.15;;;;;;;;;;5022122;28;20052;-79
2024/01/12 00:34:41;;;;;;;71.43;35.05;;;;;;;;;;5039995;28;20049;-79
2024/01/12 00:37:07;;;;;;;96.25;37.58;;;;;;;;;;5041994;28;20136;-79
2024/01/12 00:39:35;;;;;;;83.20;34.75;;;;;;;;;;5029197;28;20136;-79
2024/01/12 00:42:01;;;;;;;84.60;36.25;;;;;;;;;;5049034;28;20053;-79
2024/01/12 00:44:27;;;;;;;92.22;36.15;;;;;;;;;;5033131;28;20057;-80
2024/01/12 00:46:55;;;;;;;86.13;36.45;;;;;;;;;;5018859;28;20415;-79
2024/01/12 00:49:21;;;;;;;84.32;36.50;;;;;;;;;;5041896;28;20048;-80
2024/01/12 00:51:48;;;;;;;77.57;35.33;;;;;;;;;;5041029;28;20036;-79
2024/01/12 00:54:14;;;;;;;77.47;34.30;;;;;;;;;;5050112;28;20041;-79
2024/01/12 00:56:40;;;;;;;77.57;34.10;;;;;;;;;;5055386;28;20076;-80
2024/01/12 00:59:06;;;;;;;67.45;32.30;;;;;;;;;;5040271;28;20064;-79
2024/01/12 01:01:33;;;;;;;79.00;34.47;;;;;;;;;;5022122;28;20038;-80
2024/01/12 01:04:00;;;;;;;67.70;31.42;;;;;;;;;;5040282;28;20453;-79
2024/01/12 01:06:26;;;;;;;72.10;31.58;;;;;;;;;;5037321;28;20088;-79
2024/01/12 01:08:53;;;;;;;70.90;31.55;;;;;;;;;;5034396;28;20183;-80
2024/01/12 01:11:19;;;;;;;68.07;30.95;;;;;;;;;;5030742;28;20105;-80
2024/01/12 01:13:45;;;;;;;66.35;29.95;;;;;;;;;;5039024;28;20491;-79
2024/01/12 01:16:11;;;;;;;71.07;29.23;;;;;;;;;;5038332;28;20045;-80
2024/01/12 01:18:37;;;;;;;68.97;29.50;;;;;;;;;;5047471;28;20048;-79
2024/01/12 01:21:03;;;;;;;70.97;27.75;;;;;;;;;;5024982;28;20049;-79
2024/01/12 01:23:29;;;;;;;64.70;28.25;;;;;;;;;;5038354;28;20041;-79
2024/01/12 01:25:55;;;;;;;65.40;27.77;;;;;;;;;;5039216;28;20049;-80
2024/01/12 01:28:21;;;;;;;59.65;27.10;;;;;;;;;;5039479;28;20406;-79
2024/01/12 01:30:48;;;;;;;58.17;26.08;;;;;;;;;;5029887;28;20068;-79
2024/01/12 01:33:14;;;;;;;58.28;25.92;;;;;;;;;;5040260;28;20105;-79
2024/01/12 01:35:40;;;;;;;59.50;23.92;;;;;;;;;;5039836;28;20048;-79
2024/01/12 01:38:06;;;;;;;63.00;25.58;;;;;;;;;;5022346;28;20049;-79
2024/01/12 01:40:32;;;;;;;52.78;23.35;;;;;;;;;;5036680;28;20050;-79
2024/01/12 01:43:07;;;;;;;60.08;22.70;;;;;;;;;;5003066;28;20057;-80
2024/01/12 01:45:34;;;;;;;56.78;22.13;;;;;;;;;;5036336;28;20045;-79
2024/01/12 01:48:01;;;;;;;53.00;20.85;;;;;;;;;;5039122;28;20049;-80
2024/01/12 01:50:27;;;;;;;53.67;19.58;;;;;;;;;;5050008;28;20101;-79
2024/01/12 01:52:53;;;;;;;55.65;18.58;;;;;;;;;;5026578;28;20045;-79
2024/01/12 01:55:19;;;;;;;48.60;19.23;;;;;;;;;;5041072;28;20045;-79
2024/01/12 01:57:46;;;;;;;44.83;17.88;;;;;;;;;;5045940;28;20079;-79
2024/01/12 02:00:12;;;;;;;44.95;17.17;;;;;;;;;;5041624;28;20049;-79
2024/01/12 02:02:39;;;;;;;45.60;16.27;;;;;;;;;;5053906;28;20041;-79
2024/01/12 02:05:10;;;;;;;44.88;15.50;;;;;;;;;;5057999;28;20041;-79
2024/01/12 02:07:39;;;;;;;44.55;15.65;;;;;;;;;;5051007;28;20051;-79
2024/01/12 02:10:06;;;;;;;42.72;15.30;;;;;;;;;;5058442;28;20049;-79
2024/01/12 02:12:34;;;;;;;38.33;15.50;;;;;;;;;;5043120;28;20045;-79
2024/01/12 02:15:00;;;;;;;33.40;14.02;;;;;;;;;;5044950;28;20049;-79
2024/01/12 02:17:26;;;;;;;40.58;14.68;;;;;;;;;;5040143;28;20042;-79
2024/01/12 02:19:58;;;;;;;39.38;14.95;;;;;;;;;;5042700;28;20037;-79
2024/01/12 02:22:25;;;;;;;41.00;15.27;;;;;;;;;;5044615;28;20048;-79
2024/01/12 02:24:51;;;;;;;46.78;15.40;;;;;;;;;;5039174;28;20050;-79
2024/01/12 02:27:17;;;;;;;32.45;13.13;;;;;;;;;;5042965;28;20049;-79
2024/01/12 02:29:43;;;;;;;37.63;14.05;;;;;;;;;;5040633;28;20483;-79
2024/01/12 02:32:09;;;;;;;40.67;14.27;;;;;;;;;;5039755;28;20050;-79
2024/01/12 02:34:35;;;;;;;31.77;12.32;;;;;;;;;;5039715;28;20054;-79
2024/01/12 02:37:01;;;;;;;31.30;12.93;;;;;;;;;;5039277;28;20053;-79
2024/01/12 02:39:27;;;;;;;30.67;12.55;;;;;;;;;;5041862;28;20052;-79
2024/01/12 02:41:57;;;;;;;25.83;11.90;;;;;;;;;;5042330;28;20046;-79
2024/01/12 02:44:24;;;;;;;23.10;11.45;;;;;;;;;;5042123;28;20120;-79
2024/01/12 02:46:50;;;;;;;26.60;12.18;;;;;;;;;;5042796;28;20037;-79
2024/01/12 02:49:16;;;;;;;24.88;12.43;;;;;;;;;;5042336;28;20037;-79
2024/01/12 02:51:42;;;;;;;27.70;12.00;;;;;;;;;;5042350;28;20695;-80
2024/01/12 02:54:08;;;;;;;25.65;12.52;;;;;;;;;;5055738;28;20045;-79
2024/01/12 02:56:35;;;;;;;24.60;11.95;;;;;;;;;;5043958;28;20052;-79
2024/01/12 02:59:01;;;;;;;24.70;11.52;;;;;;;;;;5041719;28;20046;-79
2024/01/12 03:01:27;;;;;;;26.27;11.30;;;;;;;;;;5042564;28;20129;-79
2024/01/12 03:03:54;;;;;;;26.88;12.15;;;;;;;;;;5047969;28;20060;-79
2024/01/12 03:06:20;;;;;;;24.10;10.23;;;;;;;;;;5062263;28;20037;-79
2024/01/12 03:08:46;;;;;;;26.40;10.27;;;;;;;;;;5059086;28;20498;-79
2024/01/12 03:11:12;;;;;;;25.08;11.10;;;;;;;;;;5055179;28;20080;-79
2024/01/12 03:13:38;;;;;;;33.10;12.63;;;;;;;;;;5041080;28;20061;-79
2024/01/12 03:16:04;;;;;;;24.48;11.45;;;;;;;;;;5044439;28;20045;-79
2024/01/12 03:18:31;;;;;;;29.30;11.93;;;;;;;;;;5025800;28;20132;-79
2024/01/12 03:20:58;;;;;;;24.08;10.32;;;;;;;;;;5025321;28;20038;-79
2024/01/12 03:23:24;;;;;;;20.77;10.40;;;;;;;;;;5040745;28;20368;-79
2024/01/12 03:25:50;;;;;;;25.50;10.45;;;;;;;;;;5041211;28;20052;-79
2024/01/12 03:28:16;;;;;;;23.08;9.70;;;;;;;;;;5052153;28;20049;-80
2024/01/12 03:30:42;;;;;;;24.23;9.50;;;;;;;;;;5026415;28;20107;-79
2024/01/12 03:33:09;;;;;;;19.45;10.05;;;;;;;;;;5023971;28;20042;-79
2024/01/12 03:35:38;;;;;;;15.27;9.25;;;;;;;;;;5031859;28;20049;-80
2024/01/12 03:38:04;;;;;;;24.20;10.20;;;;;;;;;;5018010;28;20045;-79
2024/01/12 03:40:30;;;;;;;19.13;10.23;;;;;;;;;;5042497;28;20041;-79
2024/01/12 03:42:56;;;;;;;24.02;10.55;;;;;;;;;;5044656;28;20044;-80
2024/01/12 03:45:22;;;;;;;25.08;10.85;;;;;;;;;;5047992;28;20049;-80
2024/01/12 03:47:48;;;;;;;25.17;11.25;;;;;;;;;;5038628;28;20041;-79
2024/01/12 03:50:14;;;;;;;19.25;9.13;;;;;;;;;;5033520;28;20494;-80
2024/01/12 03:52:40;;;;;;;23.10;10.25;;;;;;;;;;5029330;28;20049;-79
2024/01/12 03:55:07;;;;;;;25.92;11.07;;;;;;;;;;5054412;28;20643;-79
2024/01/12 03:57:33;;;;;;;23.88;10.27;;;;;;;;;;5030708;28;20044;-79
2024/01/12 04:00:00;;;;;;;24.20;10.82;;;;;;;;;;5061202;28;20075;-80
2024/01/12 04:02:26;;;;;;;21.90;9.38;;;;;;;;;;5043045;28;20148;-80
2024/01/12 04:04:52;;;;;;;21.13;10.38;;;;;;;;;;5041168;28;20136;-79
2024/01/12 04:07:19;;;;;;;29.33;11.93;;;;;;;;;;5028894;28;20101;-80
2024/01/12 04:09:46;;;;;;;22.42;11.05;;;;;;;;;;5038824;28;20051;-79
2024/01/12 04:12:12;;;;;;;26.52;11.43;;;;;;;;;;5027921;28;20071;-79
2024/01/12 04:14:38;;;;;;;20.17;10.07;;;;;;;;;;5013411;28;20042;-79
2024/01/12 04:17:04;;;;;;;21.83;9.45;;;;;;;;;;5032552;28;20052;-79
2024/01/12 04:19:30;;;;;;;24.27;10.30;;;;;;;;;;5021320;28;20049;-79
2024/01/12 04:21:56;;;;;;;23.98;10.82;;;;;;;;;;5023180;28;20042;-80
2024/01/12 04:24:22;;;;;;;22.67;11.07;;;;;;;;;;5034886;28;20049;-79
2024/01/12 04:26:48;;;;;;;23.88;10.18;;;;;;;;;;5049215;28;20048;-79
2024/01/12 04:29:14;;;;;;;28.35;10.63;;;;;;;;;;5040964;28;20046;-79
2024/01/12 04:31:41;;;;;;;28.55;10.68;;;;;;;;;;5039546;28;20053;-80
2024/01/12 04:34:07;;;;;;;29.52;11.05;;;;;;;;;;5040590;28;20052;-79
2024/01/12 04:36:33;;;;;;;23.15;10.27;;;;;;;;;;5040190;28;20041;-79
2024/01/12 04:38:59;;;;;;;23.27;11.23;;;;;;;;;;5022117;28;20049;-79
2024/01/12 04:41:25;;;;;;;21.70;10.30;;;;;;;;;;5036739;28;20045;-79
2024/01/12 04:43:51;;;;;;;27.85;11.40;;;;;;;;;;5039847;28;20052;-79
2024/01/12 04:46:18;;;;;;;25.75;11.15;;;;;;;;;;5039679;28;20049;-79
2024/01/12 04:48:44;;;;;;;28.67;11.75;;;;;;;;;;5052347;28;20402;-79
2024/01/12 04:51:10;;;;;;;29.80;11.63;;;;;;;;;;5059597;28;20087;-79
2024/01/12 04:53:37;;;;;;;25.15;10.75;;;;;;;;;;5026664;28;20060;-79
2024/01/12 04:56:03;;;;;;;27.17;11.38;;;;;;;;;;5043268;28;20045;-79
2024/01/12 04:58:29;;;;;;;23.83;10.63;;;;;;;;;;5045423;28;20510;-79
2024/01/12 05:00:55;;;;;;;29.95;10.73;;;;;;;;;;5039506;28;20057;-79
2024/01/12 05:03:21;;;;;;;26.90;10.75;;;;;;;;;;5038828;28;20042;-79
2024/01/12 05:05:47;;;;;;;25.75;10.90;;;;;;;;;;5027335;28;20053;-79
2024/01/12 05:08:16;;;;;;;24.13;10.82;;;;;;;;;;5020143;28;20100;-80
2024/01/12 05:10:42;;;;;;;26.58;10.95;;;;;;;;;;5020363;28;20046;-79
2024/01/12 05:13:09;;;;;;;24.73;11.43;;;;;;;;;;5038627;28;20381;-80
2024/01/12 05:15:35;;;;;;;22.67;11.57;;;;;;;;;;5040172;28;20052;-79
2024/01/12 05:18:02;;;;;;;25.80;10.70;;;;;;;;;;5040511;28;20045;-79
2024/01/12 05:20:29;;;;;;;22.35;11.23;;;;;;;;;;5026157;28;20454;-80
2024/01/12 05:22:55;;;;;;;25.65;11.75;;;;;;;;;;5045504;28;20099;-79
2024/01/12 05:25:21;;;;;;;28.85;11.52;;;;;;;;;;5043245;28;20059;-79
2024/01/12 05:27:47;;;;;;;25.58;10.75;;;;;;;;;;5054828;28;20048;-79
2024/01/12 05:30:13;;;;;;;22.08;9.30;;;;;;;;;;5058385;28;20045;-79
2024/01/12 05:32:39;;;;;;;24.35;10.85;;;;;;;;;;5041251;28;20055;-79
2024/01/12 05:35:05;;;;;;;26.05;10.38;;;;;;;;;;5046032;28;20102;-79
2024/01/12 05:37:32;;;;;;;24.77;10.40;;;;;;;;;;5039266;28;20045;-79
2024/01/12 05:39:58;;;;;;;23.52;9.23;;;;;;;;;;5054075;28;20049;-80
2024/01/12 05:42:24;;;;;;;21.17;9.23;;;;;;;;;;5016499;28;20100;-80
2024/01/12 05:44:50;;;;;;;22.30;9.63;;;;;;;;;;5026050;28;20034;-79
2024/01/12 05:47:16;;;;;;;23.27;9.93;;;;;;;;;;5039611;28;20038;-79
2024/01/12 05:49:42;;;;;;;24.77;10.13;;;;;;;;;;5026160;28;20048;-79
2024/01/12 05:52:08;;;;;;;26.67;9.63;;;;;;;;;;5043619;28;20043;-79
2024/01/12 05:54:34;;;;;;;23.48;9.93;;;;;;;;;;5051026;28;20049;-79
2024/01/12 05:57:00;;;;;;;26.33;10.30;;;;;;;;;;5019627;28;20113;-80
2024/01/12 05:59:26;;;;;;;25.80;10.63;;;;;;;;;;5034244;28;20049;-79
2024/01/12 06:01:54;;;;;;;26.80;9.30;;;;;;;;;;5046990;28;20435;-79
2024/01/12 06:04:20;;;;;;;29.25;10.27;;;;;;;;;;5048761;28;20072;-79
2024/01/12 06:06:46;;;;;;;30.38;10.88;;;;;;;;;;5056137;28;20041;-80
2024/01/12 06:09:12;;;;;;;29.65;10.57;;;;;;;;;;5039816;28;20049;-79
2024/01/12 06:11:42;;;;;;;33.60;10.55;;;;;;;;;;5038849;28;20453;-79
2024/01/12 06:14:08;;;;;;;33.35;10.07;;;;;;;;;;5039852;28;20054;-79
2024/01/12 06:16:34;;;;;;;27.77;10.48;;;;;;;;;;5042650;28;20061;-80
2024/01/12 06:19:00;;;;;;;23.92;8.80;;;;;;;;;;5048814;28;20042;-79
2024/01/12 06:21:26;;;;;;;32.22;9.52;;;;;;;;;;5049595;28;20415;-79
2024/01/12 06:23:52;;;;;;;34.47;10.88;;;;;;;;;;5053232;28;20060;-80
2024/01/12 06:26:18;;;;;;;33.83;10.75;;;;;;;;;;5043985;28;20059;-79
2024/01/12 06:28:44;;;;;;;35.47;10.85;;;;;;;;;;5041517;28;20041;-79
2024/01/12 06:31:11;;;;;;;34.45;11.10;;;;;;;;;;5045729;28;20053;-79
2024/01/12 06:33:37;;;;;;;33.83;10.45;;;;;;;;;;5046915;28;20563;-79
2024/01/12 06:36:03;;;;;;;42.95;10.98;;;;;;;;;;5044452;28;20103;-79
2024/01/12 06:38:29;;;;;;;39.28;10.45;;;;;;;;;;5062350;28;20063;-79
2024/01/12 06:40:56;;;;;;;35.92;11.48;;;;;;;;;;5052215;28;20049;-80
2024/01/12 06:43:22;;;;;;;36.95;11.05;;;;;;;;;;5033094;28;20041;-80
2024/01/12 06:45:48;;;;;;;36.60;12.68;;;;;;;;;;5042461;28;20053;-79
2024/01/12 06:48:14;;;;;;;34.10;11.48;;;;;;;;;;5043062;28;20045;-79
2024/01/12 06:50:40;;;;;;;32.55;12.73;;;;;;;;;;5042661;28;20487;-79
2024/01/12 06:53:08;;;;;;;37.88;13.98;;;;;;;;;;5042708;28;20044;-79
2024/01/12 06:55:37;;;;;;;33.90;13.70;;;;;;;;;;5042475;28;20061;-80
2024/01/12 06:58:04;;;;;;;31.15;12.75;;;;;;;;;;5042439;28;20064;-79
2024/01/12 07:00:30;;;;;;;32.50;12.40;;;;;;;;;;5035575;28;20068;-79
2024/01/12 07:02:57;;;;;;;29.38;11.73;;;;;;;;;;5038655;28;20054;-79
2024/01/12 07:05:25;;;;;;;32.45;11.98;;;;;;;;;;5040678;28;20114;-79
2024/01/12 07:07:51;;;;;;;34.35;14.70;;;;;;;;;;5018957;28;20410;-80
2024/01/12 07:10:17;;;;;;;38.53;15.88;;;;;;;;;;5034357;28;20769;-79
2024/01/12 07:12:43;;;;;;;32.58;14.70;;;;;;;;;;5034421;28;20048;-80
2024/01/12 07:15:09;;;;;;;45.15;20.08;;;;;;;;;;5033976;28;20078;-79
2024/01/12 07:17:35;;;;;;;43.15;19.10;;;;;;;;;;5021755;28;20072;-80
2024/01/12 07:20:01;;;;;;;42.92;19.48;;;;;;;;;;5036410;28;20476;-80
2024/01/12 07:22:27;;;;;;;47.50;18.50;;;;;;;;;;5038233;28;20052;-80
2024/01/12 07:24:54;;;;;;;42.88;14.80;;;;;;;;;;5036094;28;20507;-79
2024/01/12 07:27:20;;;;;;;42.95;15.00;;;;;;;;;;5016167;28;20045;-79
2024/01/12 07:29:46;;;;;;;43.90;15.52;;;;;;;;;;5043632;28;20059;-79
2024/01/12 07:32:12;;;;;;;46.10;16.77;;;;;;;;;;5039175;28;20045;-79
2024/01/12 07:34:38;;;;;;;40.70;15.80;;;;;;;;;;5037797;28;20659;-79
2024/01/12 07:37:04;;;;;;;60.05;22.63;;;;;;;;;;5036277;28;20050;-79
2024/01/12 07:39:30;;;;;;;60.30;28.38;;;;;;;;;;5032457;28;20054;-79
2024/01/12 07:41:56;;;;;;;53.83;25.98;;;;;;;;;;5046369;28;20541;-79
2024/01/12 07:44:22;;;;;;;56.15;24.42;;;;;;;;;;5038032;28;20097;-79
2024/01/12 07:46:48;;;;;;;54.45;23.20;;;;;;;;;;5049748;28;20037;-79
2024/01/12 07:49:14;;;;;;;40.42;17.38;;;;;;;;;;5043774;28;20052;-79
2024/01/12 07:51:40;;;;;;;52.92;17.45;;;;;;;;;;5042052;28;20052;-79
2024/01/12 07:54:08;;;;;;;46.60;16.92;;;;;;;;;;5015280;28;20524;-79
2024/01/12 07:56:34;;;;;;;42.50;17.85;;;;;;;;;;5021484;28;20045;-80
2024/01/12 07:59:00;;;;;;;45.47;18.42;;;;;;;;;;5038887;28;20053;-80
2024/01/12 08:01:26;;;;;;;59.72;21.75;;;;;;;;;;5020203;28;20498;-79
2024/01/12 08:03:53;;;;;;;48.90;18.17;;;;;;;;;;5021014;28;20053;-81
2024/01/12 08:06:19;;;;;;;59.90;20.13;;;;;;;;;;5039011;28;20050;-81
2024/01/12 08:08:45;;;;;;;39.53;15.38;;;;;;;;;;5039049;28;20045;-78
2024/01/12 08:11:11;;;;;;;46.67;15.50;;;;;;;;;;5035723;28;20046;-80
2024/01/12 08:13:37;;;;;;;39.97;12.48;;;;;;;;;;5017179;28;20064;-78
2024/01/12 08:16:03;;;;;;;39.03;11.70;;;;;;;;;;5037089;28;20067;-80
2024/01/12 08:18:29;;;;;;;39.50;10.90;;;;;;;;;;5040004;28;20045;-80
2024/01/12 08:20:55;;;;;;;35.13;11.07;;;;;;;;;;5041543;28;20049;-81
2024/01/12 08:23:21;;;;;;;35.17;11.15;;;;;;;;;;5040197;28;20095;-80
2024/01/12 08:25:47;;;;;;;39.92;11.35;;;;;;;;;;5030162;28;20085;-79
2024/01/12 08:28:13;;;;;;;47.75;11.55;;;;;;;;;;5059220;28;20069;-79
2024/01/12 08:30:39;;;;;;;38.42;11.57;;;;;;;;;;5039626;28;20044;-79
2024/01/12 08:33:06;;;;;;;31.77;10.10;;;;;;;;;;5039041;28;20120;-79
2024/01/12 08:35:32;;;;;;;29.52;9.93;;;;;;;;;;5039825;28;20058;-81
2024/01/12 08:37:58;;;;;;;26.55;10.40;;;;;;;;;;5039561;28;20091;-79
2024/01/12 08:40:24;;;;;;;35.08;10.68;;;;;;;;;;5024543;28;20053;-79
2024/01/12 08:42:51;;;;;;;35.85;10.45;;;;;;;;;;5018807;28;20065;-79
2024/01/12 08:45:17;;;;;;;25.70;8.52;;;;;;;;;;5033634;28;20049;-80
2024/01/12 08:47:43;;;;;;;30.80;9.98;;;;;;;;;;5019946;28;20046;-79
2024/01/12 08:50:09;;;;;;;28.42;9.68;;;;;;;;;;5038373;28;20057;-79
2024/01/12 08:52:36;;;;;;;26.67;9.15;;;;;;;;;;5039317;28;20045;-80
2024/01/12 08:55:04;;;;;;;29.38;9.40;;;;;;;;;;5038875;28;20076;-79
2024/01/12 08:57:30;;;;;;;23.42;8.75;;;;;;;;;;5039402;28;20045;-79
2024/01/12 08:59:56;;;;;;;34.08;9.90;;;;;;;;;;5038755;28;20057;-80
2024/01/12 09:02:22;;;;;;;29.90;9.88;;;;;;;;;;5039128;28;20387;-79
2024/01/12 09:04:48;;;;;;;27.33;9.10;;;;;;;;;;5037470;28;20072;-79
2024/01/12 09:07:14;;;;;;;24.02;8.60;;;;;;;;;;5039429;28;20059;-79
2024/01/12 09:09:40;;;;;;;29.17;8.95;;;;;;;;;;5039069;28;20054;-79
2024/01/12 09:12:07;;;;;;;23.45;8.55;;;;;;;;;;5027650;28;20055;-80
2024/01/12 09:14:36;;;;;;;27.98;9.45;;;;;;;;;;5021965;28;20057;-80
2024/01/12 09:17:02;;;;;;;29.42;9.60;;;;;;;;;;5021336;28;20140;-80
2024/01/12 09:19:28;;;;;;;27.27;8.75;;;;;;;;;;5038484;28;20314;-80
2024/01/12 09:21:54;;;;;;;24.88;10.02;;;;;;;;;;5039472;28;20049;-80
2024/01/12 09:24:20;;;;;;;31.40;9.98;;;;;;;;;;5021615;28;20155;-80
2024/01/12 09:26:46;;;;;;;31.02;11.57;;;;;;;;;;5021393;28;20085;-79
2024/01/12 09:29:12;;;;;;;31.25;10.82;;;;;;;;;;5021831;28;20049;-80
2024/01/12 09:31:38;;;;;;;24.45;10.20;;;;;;;;;;5038891;28;20104;-79
2024/01/12 09:34:04;;;;;;;31.58;10.82;;;;;;;;;;5021235;28;20387;-80
2024/01/12 09:36:30;;;;;;;26.85;10.32;;;;;;;;;;5021652;28;20053;-79
2024/01/12 09:38:56;;;;;;;27.08;9.27;;;;;;;;;;5038294;28;20077;-79
2024/01/12 09:41:32;;;;;;;28.63;8.52;;;;;;;;;;5038278;28;20080;-80
2024/01/12 09:43:59;;;;;;;27.27;8.32;;;;;;;;;;5038744;28;20053;-80
2024/01/12 09:46:28;;;;;;;28.77;8.27;;;;;;;;;;5039888;28;20053;-79
2024/01/12 09:48:54;;;;;;;26.45;7.80;;;;;;;;;;5049906;28;20059;-80
2024/01/12 09:51:21;;;;;;;23.80;7.50;;;;;;;;;;5054840;28;20049;-80
2024/01/12 09:53:48;;;;;;;24.75;7.78;;;;;;;;;;5015081;28;20117;-81
2024/01/12 09:56:14;;;;;;;20.27;7.32;;;;;;;;;;5006253;28;20472;-80
2024/01/12 09:58:41;;;;;;;28.58;7.45;;;;;;;;;;5025807;28;20058;-79
2024/01/12 10:01:10;;;;;;;24.33;7.95;;;;;;;;;;5043549;28;20042;-81
2024/01/12 10:03:38;;;;;;;29.80;8.15;;;;;;;;;;5045459;28;20077;-82
2024/01/12 10:06:05;;;;;;;21.27;7.22;;;;;;;;;;5041994;28;20084;-82
2024/01/12 10:08:37;;;;;;;33.38;7.68;;;;;;;;;;5047197;28;20060;-82
2024/01/12 10:11:03;;;;;;;31.88;7.43;;;;;;;;;;5046312;28;20097;-83
2024/01/12 10:13:29;;;;;;;24.38;7.60;;;;;;;;;;5029403;28;20072;-82
2024/01/12 10:15:56;;;;;;;22.75;7.80;;;;;;;;;;5057360;28;20041;-82
2024/01/12 10:18:23;;;;;;;22.13;6.63;;;;;;;;;;5042335;28;20038;-82
2024/01/12 10:20:50;;;;;;;24.48;7.38;;;;;;;;;;5028950;28;20053;-82
2024/01/12 10:23:22;;;;;;;21.23;7.75;;;;;;;;;;5028920;28;20053;-82
2024/01/12 10:25:59;;;;;;;25.45;7.07;;;;;;;;;;5028234;28;20049;-82
2024/01/12 10:28:28;;;;;;;17.63;6.63;;;;;;;;;;5046864;28;20146;-82
2024/01/12 10:30:54;;;;;;;21.42;6.85;;;;;;;;;;5046202;28;20084;-82
2024/01/12 10:33:20;;;;;;;30.95;11.65;;;;;;;;;;5043835;28;20123;-82
2024/01/12 10:35:49;;;;;;;23.10;9.85;;;;;;;;;;5044014;28;20041;-82
2024/01/12 10:38:15;;;;;;;27.27;11.63;;;;;;;;;;5043698;28;20060;-83
2024/01/12 10:40:42;;;;;;;26.38;11.50;;;;;;;;;;5043978;28;20045;-83
2024/01/12 10:43:12;;;;;;;28.05;12.38;;;;;;;;;;5044631;28;20045;-83
2024/01/12 10:45:39;;;;;;;39.88;17.95;;;;;;;;;;5044470;28;20033;-82
2024/01/12 10:48:10;;;;;;;31.00;13.05;;;;;;;;;;5045249;28;20050;-83
2024/01/12 10:50:41;;;;;;;28.58;8.77;;;;;;;;;;5026417;28;20112;-83
2024/01/12 10:53:07;;;;;;;;;;;;;;;;;;5027461;28;20045;-82
2024/01/12 10:55:34;;;;;;;24.10;7.45;;;;;;;;;;5026847;28;19931;-83
2024/01/12 10:58:03;;;;;;;29.98;8.57;;;;;;;;;;5044600;28;20092;-83
2024/01/12 11:00:33;;;;;;;26.70;8.93;;;;;;;;;;5039372;28;20434;-83
2024/01/12 11:03:02;;;;;;;31.23;7.90;;;;;;;;;;5039631;28;20060;-82
2024/01/12 11:05:29;;;;;;;23.63;7.85;;;;;;;;;;5045058;28;20150;-82
2024/01/12 11:08:00;;;;;;;27.50;8.65;;;;;;;;;;5044141;28;20152;-83
2024/01/12 11:10:27;;;;;;;23.67;6.47;;;;;;;;;;5045174;28;20042;-82
2024/01/12 11:12:54;;;;;;;20.83;5.82;;;;;;;;;;5032709;28;20265;-83
2024/01/12 11:15:20;;;;;;;19.80;5.30;;;;;;;;;;5023307;28;20487;-83
2024/01/12 11:17:46;;;;;;;22.45;5.20;;;;;;;;;;5033715;28;20086;-82
2024/01/12 11:20:13;;;;;;;20.88;5.13;;;;;;;;;;5043433;28;20041;-83
2024/01/12 11:22:40;;;;;;;17.17;4.60;;;;;;;;;;5048528;28;20041;-83
2024/01/12 11:25:06;;;;;;;19.00;5.28;;;;;;;;;;5063174;28;20076;-83
2024/01/12 11:27:38;;;;;;;19.65;4.97;;;;;;;;;;5063335;28;20453;-82
2024/01/12 11:30:05;;;;;;;24.77;4.60;;;;;;;;;;5064204;28;20041;-83
2024/01/12 11:32:31;;;;;;;26.05;4.95;;;;;;;;;;5025230;28;20057;-83
2024/01/12 11:35:33;;;;;;;22.05;4.90;;;;;;;;;;5041873;28;20041;-83
2024/01/12 11:38:04;;;;;;;23.45;4.30;;;;;;;;;;4968582;28;20050;-82
2024/01/12 11:40:30;;;;;;;26.63;4.82;;;;;;;;;;4980963;28;20133;-83
2024/01/12 11:42:58;;;;;;;22.58;4.20;;;;;;;;;;4982211;28;20050;-83
2024/01/12 11:45:25;;;;;;;22.45;4.30;;;;;;;;;;5000742;28;20062;-83
2024/01/12 11:47:51;;;;;;;17.92;4.13;;;;;;;;;;4981023;28;20445;-83
2024/01/12 11:50:17;;;;;;;24.38;4.00;;;;;;;;;;4964761;28;20054;-82
2024/01/12 11:52:43;;;;;;;26.10;3.95;;;;;;;;;;4981755;28;20078;-83
2024/01/12 11:55:10;;;;;;;22.27;4.28;;;;;;;;;;4966482;28;20057;-82
2024/01/12 11:57:37;;;;;;;24.02;4.63;;;;;;;;;;4982147;28;20137;-83
2024/01/12 12:00:07;;;;;;;24.77;4.28;;;;;;;;;;4966537;28;20050;-83
2024/01/12 12:02:36;;;;;;;19.73;3.95;;;;;;;;;;4991215;28;20038;-83
2024/01/12 12:05:09;;;;;;;32.20;4.70;;;;;;;;;;4979932;28;20130;-83
2024/01/12 12:07:40;;;;;;;26.48;3.92;;;;;;;;;;4965475;28;20058;-82
2024/01/12 12:10:09;;;;;;;22.40;4.13;;;;;;;;;;4965067;28;20047;-82
2024/01/12 12:12:35;;;;;;;28.88;4.82;;;;;;;;;;5014629;28;20060;-82
2024/01/12 12:15:05;;;;;;;26.50;4.18;;;;;;;;;;5042549;28;20053;-82
2024/01/12 12:17:32;;;;;;;16.70;4.13;;;;;;;;;;5041902;28;20073;-82
2024/01/12 12:19:58;;;;;;;27.25;3.80;;;;;;;;;;5024383;28;20045;-82
2024/01/12 12:22:25;;;;;;;26.48;3.95;;;;;;;;;;5042082;28;20361;-83
2024/01/12 12:24:51;;;;;;;23.98;4.40;;;;;;;;;;5029842;28;20049;-82
2024/01/12 12:27:18;;;;;;;26.15;3.88;;;;;;;;;;5055305;28;20044;-83
2024/01/12 12:29:45;;;;;;;19.65;3.70;;;;;;;;;;5061838;28;20060;-82
2024/01/12 12:32:12;;;;;;;22.58;3.67;;;;;;;;;;5060641;28;20120;-82
2024/01/12 12:34:39;;;;;;;26.20;3.97;;;;;;;;;;5051748;28;20470;-83
2024/01/12 12:37:09;;;;;;;25.58;4.07;;;;;;;;;;5049148;28;20403;-82
2024/01/12 12:39:36;;;;;;;19.63;3.47;;;;;;;;;;5023233;28;20056;-82
2024/01/12 12:42:03;;;;;;;22.38;3.63;;;;;;;;;;5042471;28;20419;-83
2024/01/12 12:44:31;;;;;;;20.00;3.20;;;;;;;;;;5023674;28;20125;-82
2024/01/12 12:46:58;;;;;;;20.05;3.17;;;;;;;;;;5055580;28;20395;-82
2024/01/12 12:49:30;;;;;;;25.30;4.40;;;;;;;;;;5048218;28;20045;-82
2024/01/12 12:51:56;;;;;;;23.80;3.50;;;;;;;;;;5041248;28;20060;-82
2024/01/12 12:54:22;;;;;;;22.73;3.72;;;;;;;;;;5041490;28;20045;-82
2024/01/12 12:56:49;;;;;;;14.23;2.72;;;;;;;;;;5030009;28;20060;-82
2024/01/12 12:59:15;;;;;;;23.73;3.70;;;;;;;;;;5044052;28;20049;-82
2024/01/12 13:01:41;;;;;;;19.52;3.38;;;;;;;;;;5038793;28;20391;-80
2024/01/12 13:04:07;;;;;;;26.63;3.83;;;;;;;;;;5037469;28;20183;-80
2024/01/12 13:06:33;;;;;;;23.20;4.00;;;;;;;;;;5037723;28;20049;-81
2024/01/12 13:08:59;;;;;;;23.67;3.30;;;;;;;;;;5050337;28;20049;-81
2024/01/12 13:11:25;;;;;;;27.88;3.83;;;;;;;;;;5059355;28;20049;-81
2024/01/12 13:13:51;;;;;;;22.05;3.40;;;;;;;;;;5059022;28;20057;-81
2024/01/12 13:16:17;;;;;;;27.83;4.25;;;;;;;;;;5058987;28;20055;-80
2024/01/12 13:18:44;;;;;;;27.90;3.75;;;;;;;;;;5048837;28;20052;-80
2024/01/12 13:21:10;;;;;;;29.60;4.30;;;;;;;;;;5039022;28;20098;-81
2024/01/12 13:23:36;;;;;;;29.80;3.90;;;;;;;;;;5041472;28;20053;-81
2024/01/12 13:26:02;;;;;;;22.42;4.45;;;;;;;;;;5058801;28;20052;-80
2024/01/12 13:28:28;;;;;;;28.75;4.10;;;;;;;;;;5058321;28;20623;-81
2024/01/12 13:30:54;;;;;;;28.63;4.53;;;;;;;;;;5050639;28;20184;-82
2024/01/12 13:33:20;;;;;;;23.92;4.45;;;;;;;;;;5047038;28;20060;-81
2024/01/12 13:35:46;;;;;;;25.45;4.13;;;;;;;;;;5026916;28;20053;-81
2024/01/12 13:38:12;;;;;;;21.17;3.30;;;;;;;;;;5045793;28;20053;-80
2024/01/12 13:40:39;;;;;;;28.70;3.92;;;;;;;;;;5026451;28;20049;-81
2024/01/12 13:43:05;;;;;;;25.73;4.70;;;;;;;;;;5018443;28;20070;-82
2024/01/12 13:45:34;;;;;;;24.58;3.90;;;;;;;;;;5053857;28;20059;-81
2024/01/12 13:48:00;;;;;;;29.60;3.90;;;;;;;;;;5041219;28;20478;-82
2024/01/12 13:50:26;;;;;;;22.45;4.70;;;;;;;;;;5040614;28;20060;-81
2024/01/12 13:52:53;;;;;;;26.17;3.90;;;;;;;;;;5055242;28;20072;-81
2024/01/12 13:55:19;;;;;;;26.10;4.40;;;;;;;;;;5045092;28;20048;-81
2024/01/12 13:57:45;;;;;;;23.40;3.70;;;;;;;;;;5038263;28;20054;-81
2024/01/12 14:00:12;;;;;;;20.63;3.75;;;;;;;;;;5038446;28;20045;-81
2024/01/12 14:02:39;;;;;;;22.77;3.28;;;;;;;;;;5021757;28;20467;-81
2024/01/12 14:05:05;;;;;;;31.50;4.07;;;;;;;;;;5038731;28;20099;-80
2024/01/12 14:07:32;;;;;;;26.88;4.38;;;;;;;;;;5037641;28;20511;-81
2024/01/12 14:09:58;;;;;;;30.13;5.22;;;;;;;;;;5030079;28;20057;-81
2024/01/12 14:12:26;;;;;;;23.30;4.07;;;;;;;;;;5034042;28;20047;-81
2024/01/12 14:14:53;;;;;;;23.55;4.28;;;;;;;;;;5010476;28;20089;-81
2024/01/12 14:17:19;;;;;;;32.90;4.32;;;;;;;;;;5015671;28;20415;-81
2024/01/12 14:19:45;;;;;;;30.77;5.00;;;;;;;;;;5027569;28;20069;-80